x

South Brooks (46132) Wave Buoy

12:00pm - Sun 17th Dec 2017 All times are PST. -8 hours from GMT.

  • Sig Wave height 10.2ft
  • Peak Period 12s
  • Wind
    4mph, 7mph gusts
  • Sea Temp 51°f
  • Air Temp 48°f
  • Sea Pressure 1014.5mb
  • South Brooks
  • South Brooks

More Historic Weather Station data

Upgrade to MSW Pro to gain access to the past 30 days of data for over 8000 Wavebouys and Weather Stations around the globe.

Join

Comparision Forecast

View Surf forecast
   
Sun 12/17 12:00pm 10ft 12s 4 7 mph 1014.5mb 51f 48f
11:00am 11ft 13s 7 9 mph 1015.2mb 51f 48f
10:00am 9.5ft 11s 4 9 mph 1015.4mb 51f 48f
9:00am 11ft 10s 7 9 mph 1015.7mb 51f 48f
8:00am 11ft 11s 9 11 mph 1015.4mb 51f 48f
7:00am 11ft 12s 9 13 mph 1015.9mb 51f 49f
6:00am 10ft 11s 11 13 mph 1016.4mb 51f 49f
5:00am 10ft 10s 9 13 mph 1016.5mb 51f 49f
4:00am 9.5ft 9s 9 13 mph 1016.9mb 51f 49f
3:00am 10ft 10s 11 16 mph 1017mb 51f 49f
2:00am 8.5ft 10s 9 11 mph 1016.6mb 51f 50f
1:00am 8ft 10s 13 16 mph 1016.5mb 50f 50f
12:00am 9ft 10s 9 11 mph 1016.2mb 50f 50f
Sat 12/16 11:00pm 8ft 11s 9 11 mph 1016.9mb 50f 50f
10:00pm 8.5ft 10s 11 13 mph 1016.5mb 50f 51f
9:00pm 9ft 10s 13 18 mph 1016.5mb 50f 50f
8:00pm 8.5ft 10s 13 18 mph 1016.5mb 50f 50f
7:00pm 9ft 10s 16 18 mph 1016.6mb 51f 50f
6:00pm 9ft 10s 18 20 mph 1016.7mb 51f 50f
5:00pm 9ft 10s 18 22 mph 1017.6mb 51f 50f
4:00pm 8.5ft 10s 22 27 mph 1017.5mb 51f 50f
3:00pm 8ft 10s 22 29 mph 1018.1mb 51f 49f
2:00pm 8ft 10s 25 29 mph 1019.1mb 51f 49f
1:00pm 7ft 10s 27 34 mph 1019.3mb 51f 48f
12:00pm 7ft 11s 25 31 mph 1020.6mb 51f 47f
11:00am 6.5ft 10s 22 27 mph 1021.9mb 51f 47f
10:00am 6.5ft 11s 22 27 mph 1022.5mb 50f 46f
9:00am 7ft 11s 18 22 mph 1022.7mb 50f 46f
7:00am 7ft 11s 9 11 mph 1023.8mb 50f 45f
6:00am 6ft 11s 9 13 mph 1024.6mb 50f 46f
5:00am 6.5ft 12s 9 13 mph 1024.6mb 50f 46f
4:00am 6.5ft 8s 4 7 mph 1024.6mb 50f 47f
3:00am 7ft 10s 4 7 mph 1025.6mb 50f 47f
2:00am 7ft 10s 9 11 mph 1026.1mb 50f 48f
1:00am 7ft 9s 7 9 mph 1026.2mb 50f 48f
12:00am 7.5ft 11s 7 11 mph 1026mb 50f 48f
Fri 12/15 11:00pm 8ft 10s 13 16 mph 1026.2mb 50f 48f
10:00pm 7ft 10s 13 16 mph 1026.2mb 50f 49f
9:00pm 7ft 10s 13 18 mph 1026.1mb 50f 48f
8:00pm 7ft 11s 16 18 mph 1026.2mb 51f 48f
7:00pm 7.5ft 12s 18 22 mph 1026.1mb 51f 48f
6:00pm 8ft 12s 20 27 mph 1025.9mb 51f 49f
5:00pm 7ft 11s 18 22 mph 1026.1mb 51f 48f
4:00pm 7ft 12s 18 22 mph 1025.7mb 51f 48f
3:00pm 7ft 10s 18 22 mph 1025.2mb 51f 49f
2:00pm 8ft 11s 20 25 mph 1024.8mb 51f 49f
1:00pm 7.5ft 11s 20 25 mph 1024.5mb 51f 49f
12:00pm 7ft 12s 22 29 mph 1024.4mb 51f 49f
11:00am 7ft 12s 16 20 mph 1024.7mb 51f 48f
10:00am 8ft 10s 18 22 mph 1024.3mb 51f 48f
9:00am 8.5ft 11s 18 20 mph 1024.2mb 51f 47f
8:00am 8.5ft 11s 13 18 mph 1023.9mb 51f 47f
7:00am 8.5ft 11s 16 20 mph 1023.7mb 51f 48f
6:00am 8ft 11s 16 25 mph 1024mb 51f 47f
5:00am 8ft 11s 16 18 mph 1023.9mb 51f 49f
4:00am 8.5ft 11s 16 20 mph 1024.1mb 51f 49f
3:00am 8ft 13s 18 22 mph 1024.2mb 51f 49f
2:00am 8ft 11s 16 20 mph 1024.1mb 51f 49f
1:00am 8ft 12s 16 18 mph 1024.1mb 51f 49f
12:00am 7.5ft 12s 7 11 mph 1024mb 51f 49f
Thu 12/14 11:00pm 8ft 11s  -  4 mph 1024.1mb 51f 50f
10:00pm 8.5ft 14s 9 11 mph 1023.7mb 51f 49f
9:00pm 9ft 11s 11 16 mph 1023.3mb 51f 49f
8:00pm 8.5ft 13s 13 16 mph 1023.1mb 51f 49f
7:00pm 9ft 12s 11 16 mph 1023.4mb 51f 50f
6:00pm 9.5ft 13s 13 16 mph 1023.1mb 51f 50f
5:00pm 9ft 13s 16 18 mph 1023.3mb 51f 50f
4:00pm 9ft 10s 13 16 mph 1023.5mb 51f 50f
3:00pm 9ft 11s 13 16 mph 1023.5mb 51f 51f
2:00pm 9ft 12s 16 20 mph 1023.6mb 51f 51f
1:00pm 9ft 10s 16 20 mph 1024mb 51f 51f
12:00pm 9ft 13s 20 25 mph 1023.9mb 51f 51f
11:00am 8ft 14s 18 22 mph 1024.7mb 51f 51f
10:00am 8ft 12s 18 22 mph 1024.9mb 51f 51f
9:00am 8.5ft 14s 16 20 mph 1025.5mb 51f 51f
8:00am 9ft 14s 20 25 mph 1024.9mb 51f 51f
7:00am 8ft 15s 20 25 mph 1024.9mb 51f 51f
6:00am 7.5ft 14s 18 20 mph 1025.4mb 51f 51f
5:00am 7.5ft 15s 13 16 mph 1026.1mb 51f 51f
4:00am 7.5ft 15s 13 18 mph 1026.4mb 51f 51f
3:00am 8ft 16s 11 13 mph 1027.1mb 51f 51f
2:00am 8ft 11s 11 13 mph 1027.1mb 51f 51f
1:00am 8ft 16s 11 13 mph 1027mb 51f 50f
12:00am 8ft 12s 11 13 mph 1027.4mb 51f 51f
Wed 12/13 11:00pm 8ft 14s 11 13 mph 1027.4mb 51f 51f
10:00pm 7.5ft 13s 13 16 mph 1027.7mb 51f 50f